MUCM

Ignacio Agramonte International Airport

Airport
ICAO code
MUCM
IATA Code
CMW
Summary
ICAO Region
CARSAM
ICAO Territory
Location

Camagüey, Camaguey

Serving
Camaguey
Elevation
413 ft
Coordinates
21° 25' 7" N , 77° 50' 59" W
KCC
Airport BS
Bird Strike
Metar
Observation
MUCM 080750Z 35005KT 9000 BKN070 20/19 Q1018
Station
Camaguey Aeropuerto
Date/Time
2022-12-08 07:50:00
Wind direction
350°
Wind speed
05 kts
Lowest cloud amount
broken clouds
Temperature
20°C
Dew point
19°C
Humidity
93%
QNH
1018 hPa
Weather condition
n/a

International airport serving Camagüey, Cuba.

Climatology

Tropical Savanna climate (Köppen climate classification Aw)

Runways

Designator Length Width Surface Rops
7/25 3000 45 ASP Yes/Yes

Airport map

Aerial View

SKYbrary Partners:

Safety knowledge contributed by: